Time;durP1;ratioP1;P1;durP2;ratioP2;P2;SDS_P1;SDS_P2;PMS_P1;PMS_P2;Temp;Humidity;BMP_temperature;BMP_pressure;BME280_temperature;BME280_humidity;BME280_pressure;Samples;Min_cycle;Max_cycle;Signal;HPM_P1;HPM_P2
2021/03/25 00:00:26;;;;;;;7.10;3.40;;;9.30;63.40;;;;;;5068510;28;20031;-70
2021/03/25 00:02:54;;;;;;;9.50;3.83;;;9.30;63.50;;;;;;5068749;28;20064;-73
2021/03/25 00:05:22;;;;;;;8.95;3.88;;;9.20;63.30;;;;;;5069251;28;20020;-73
2021/03/25 00:07:48;;;;;;;9.65;3.45;;;9.20;63.40;;;;;;5050896;28;20052;-74
2021/03/25 00:10:18;;;;;;;8.27;3.72;;;9.10;63.30;;;;;;5068622;28;20063;-73
2021/03/25 00:12:44;;;;;;;8.73;4.22;;;9.10;63.30;;;;;;5069395;28;20032;-73
2021/03/25 00:15:11;;;;;;;7.55;3.90;;;9.10;63.40;;;;;;5068467;28;20439;-73
2021/03/25 00:17:37;;;;;;;6.13;3.58;;;9.00;63.20;;;;;;5051164;28;20358;-73
2021/03/25 00:20:10;;;;;;;6.78;4.10;;;9.00;63.30;;;;;;5050578;28;20459;-73
2021/03/25 00:22:37;;;;;;;7.82;3.53;;;8.90;63.20;;;;;;5068819;28;20054;-74
2021/03/25 00:25:05;;;;;;;9.57;3.22;;;8.90;63.20;;;;;;5051247;28;20058;-73
2021/03/25 00:27:31;;;;;;;6.50;3.33;;;8.90;63.30;;;;;;5068550;28;20043;-73
2021/03/25 00:29:57;;;;;;;7.45;4.30;;;8.90;63.30;;;;;;5068929;28;20092;-72
2021/03/25 00:32:23;;;;;;;5.13;3.38;;;8.80;63.20;;;;;;5050561;28;20226;-73
2021/03/25 00:34:49;;;;;;;9.50;3.92;;;8.80;63.20;;;;;;5068362;28;20532;-72
2021/03/25 00:37:15;;;;;;;7.15;4.15;;;8.80;63.20;;;;;;5068315;28;20025;-70
2021/03/25 00:39:41;;;;;;;8.25;3.70;;;8.70;63.10;;;;;;5050388;28;20087;-71
2021/03/25 00:42:07;;;;;;;7.00;3.63;;;8.70;63.10;;;;;;5068529;28;20033;-71
2021/03/25 00:44:33;;;;;;;8.38;3.75;;;8.70;63.20;;;;;;5068387;28;20025;-72
2021/03/25 00:47:00;;;;;;;7.55;3.35;;;8.70;63.20;;;;;;5034012;28;20415;-72
2021/03/25 00:49:27;;;;;;;5.82;3.58;;;8.60;63.10;;;;;;5068687;28;20040;-73
2021/03/25 00:51:53;;;;;;;5.63;3.53;;;8.60;63.10;;;;;;5050090;28;20076;-71
2021/03/25 00:54:19;;;;;;;4.45;3.33;;;8.50;63.00;;;;;;5049279;28;20068;-72
2021/03/25 00:56:45;;;;;;;7.45;3.58;;;8.50;63.00;;;;;;5067915;28;20081;-72
2021/03/25 00:59:11;;;;;;;5.45;3.70;;;8.50;63.10;;;;;;5067530;28;20521;-71
2021/03/25 01:01:37;;;;;;;6.65;3.67;;;8.40;63.00;;;;;;5050987;28;20052;-75
2021/03/25 01:04:03;;;;;;;5.18;3.03;;;8.40;63.00;;;;;;5068951;28;20079;-73
2021/03/25 01:06:29;;;;;;;4.90;3.42;;;8.40;63.00;;;;;;5034572;28;20039;-73
2021/03/25 01:08:56;;;;;;;9.70;3.70;;;8.30;62.90;;;;;;5067871;28;20097;-73
2021/03/25 01:11:27;;;;;;;6.03;3.90;;;8.30;62.90;;;;;;5049960;28;20035;-71
2021/03/25 01:13:57;;;;;;;7.28;3.45;;;8.30;63.00;;;;;;5049579;28;20554;-71
2021/03/25 01:16:26;;;;;;;4.85;3.92;;;8.30;63.00;;;;;;5067716;28;20112;-72
2021/03/25 01:18:53;;;;;;;4.68;3.28;;;8.30;63.00;;;;;;5049845;28;20032;-72
2021/03/25 01:21:19;;;;;;;5.68;3.45;;;8.20;62.90;;;;;;5067768;28;20060;-73
2021/03/25 01:23:45;;;;;;;5.45;3.67;;;8.20;62.90;;;;;;5049286;28;20047;-74
2021/03/25 01:26:12;;;;;;;6.78;3.42;;;8.20;62.90;;;;;;5049838;28;20029;-73
2021/03/25 01:28:38;;;;;;;8.60;3.30;;;8.10;62.80;;;;;;5067097;28;20079;-73
2021/03/25 01:31:04;;;;;;;5.30;3.60;;;8.10;62.80;;;;;;5049601;28;20060;-71
2021/03/25 01:33:30;;;;;;;8.30;3.55;;;8.10;62.90;;;;;;5029652;28;20437;-72
2021/03/25 01:35:57;;;;;;;3.90;3.00;;;8.10;62.90;;;;;;5047237;28;20066;-72
2021/03/25 01:38:24;;;;;;;8.20;3.15;;;8.10;63.00;;;;;;5049986;28;20479;-71
2021/03/25 01:40:58;;;;;;;7.75;3.03;;;8.10;63.00;;;;;;5067008;28;20478;-73
2021/03/25 01:43:32;;;;;;;3.33;2.70;;;8.00;63.00;;;;;;5048998;28;20043;-70
2021/03/25 01:46:18;;;;;;;;;;;8.00;63.00;;;;;;5049625;28;20032;-71
2021/03/25 01:48:47;;;;;;;9.70;3.22;;;7.90;62.70;;;;;;5048372;28;19924;-74
2021/03/25 01:51:34;;;;;;;8.18;3.42;;;7.90;62.60;;;;;;5049164;28;20033;-74
2021/03/25 01:54:36;;;;;;;7.25;3.30;;;7.90;62.70;;;;;;5049478;28;20059;-72
2021/03/25 01:57:08;;;;;;;5.95;3.10;;;7.80;62.60;;;;;;5015480;28;20471;-71
2021/03/25 02:00:07;;;;;;;6.22;3.03;;;7.80;62.60;;;;;;5047473;28;20021;-73
2021/03/25 02:02:55;;;;;;;6.55;3.25;;;7.80;62.70;;;;;;5058615;28;20119;-73
2021/03/25 02:05:49;;;;;;;5.55;3.00;;;7.80;62.60;;;;;;5047919;28;20028;-73
2021/03/25 02:08:16;;;;;;;4.50;3.00;;;7.70;62.60;;;;;;5066298;28;20487;-73
2021/03/25 02:11:00;;;;;;;4.88;3.40;;;7.70;62.60;;;;;;5048812;28;20450;-72
2021/03/25 02:13:39;;;;;;;5.72;3.20;;;7.70;62.70;;;;;;5048483;28;20479;-73
2021/03/25 02:16:19;;;;;;;6.95;3.00;;;7.70;62.70;;;;;;5048873;28;20074;-71
2021/03/25 02:19:38;;;;;;;4.47;2.60;;;7.70;62.80;;;;;;5051833;28;20037;-73
2021/03/25 02:22:08;;;;;;;4.10;3.08;;;7.70;62.90;;;;;;5032394;28;20029;-73
2021/03/25 02:25:22;;;;;;;5.63;3.00;;;7.70;62.80;;;;;;5066566;28;20036;-71
2021/03/25 02:28:34;;;;;;;5.40;2.83;;;7.70;62.90;;;;;;5018051;28;20102;-74
2021/03/25 02:31:27;;;;;;;3.05;2.25;;;7.80;63.00;;;;;;4984364;28;20441;-73
2021/03/25 02:34:01;;;;;;;5.75;2.97;;;7.80;63.10;;;;;;5068031;28;20379;-73
2021/03/25 02:36:43;;;;;;;7.03;2.60;;;7.70;62.80;;;;;;5067919;28;20032;-73
2021/03/25 02:39:23;;;;;;;4.85;2.55;;;7.70;63.00;;;;;;5049725;28;20051;-74
2021/03/25 02:41:52;;;;;;;6.18;2.92;;;7.70;63.00;;;;;;5068074;28;20091;-73
2021/03/25 02:44:36;;;;;;;5.63;2.90;;;7.70;63.00;;;;;;5050114;28;20032;-71
2021/03/25 02:47:04;;;;;;;;;;;7.70;63.10;;;;;;5073634;23;20504;-86
2021/03/25 02:49:39;;;;;;;6.68;3.03;;;7.80;63.10;;;;;;5074608;28;19935;-88
2021/03/25 02:52:14;;;;;;;3.72;2.20;;;7.80;63.00;;;;;;5057954;28;20126;-88
2021/03/25 02:54:45;;;;;;;5.38;2.65;;;7.80;63.10;;;;;;5075064;28;20031;-86
2021/03/25 02:57:24;;;;;;;3.30;2.63;;;7.80;63.10;;;;;;5094654;28;20303;-87
2021/03/25 02:59:55;;;;;;;4.43;2.83;;;7.80;63.10;;;;;;5061837;28;20024;-84
2021/03/25 03:02:34;;;;;;;4.65;2.78;;;7.90;63.30;;;;;;5093001;28;20063;-87
2021/03/25 03:05:18;;;;;;;3.50;2.40;;;7.90;63.30;;;;;;5092333;28;20028;-86
2021/03/25 03:07:53;;;;;;;5.72;3.28;;;7.90;63.30;;;;;;5057755;28;20046;-86
2021/03/25 03:10:34;;;;;;;4.43;2.60;;;7.90;63.30;;;;;;5058515;28;20111;-87
2021/03/25 03:13:02;;;;;;;6.93;2.95;;;7.90;63.70;;;;;;5057795;28;20482;-89
2021/03/25 03:15:36;;;;;;;4.28;2.63;;;8.00;63.40;;;;;;5074897;28;20035;-89
2021/03/25 03:18:18;;;;;;;3.38;2.53;;;8.00;63.40;;;;;;5063457;28;20035;-88
2021/03/25 03:20:54;;;;;;;3.47;2.28;;;8.00;63.40;;;;;;5062434;28;20028;-89
2021/03/25 03:23:56;;;;;;;9.23;3.17;;;8.00;63.40;;;;;;5011461;28;20084;-89
2021/03/25 03:26:42;;;;;;;3.78;2.28;;;8.00;63.30;;;;;;5070311;28;20062;-90
2021/03/25 03:29:10;;;;;;;3.05;2.00;;;8.00;63.30;;;;;;5061658;28;20111;-90
2021/03/25 03:31:48;;;;;;;7.43;2.33;;;8.00;63.30;;;;;;5078573;28;20032;-89
2021/03/25 03:34:30;;;;;;;7.28;2.85;;;8.00;63.40;;;;;;5063648;28;20032;-89
2021/03/25 03:37:07;;;;;;;5.82;2.42;;;8.00;63.30;;;;;;5061829;28;20391;-85
2021/03/25 03:39:41;;;;;;;6.70;2.38;;;8.00;63.40;;;;;;5097098;28;20080;-89
2021/03/25 03:42:13;;;;;;;4.50;2.47;;;8.00;63.40;;;;;;5061756;28;20032;-89
2021/03/25 03:44:48;;;;;;;3.22;2.00;;;8.00;63.40;;;;;;5096227;28;20032;-88
2021/03/25 03:47:22;;;;;;;6.80;2.75;;;8.00;63.50;;;;;;5077328;28;20052;-86
2021/03/25 03:50:22;;;;;;;4.18;1.98;;;8.00;63.50;;;;;;5079655;28;20039;-88
2021/03/25 03:52:50;;;;;;;4.90;2.30;;;8.00;63.50;;;;;;5090893;28;20043;-86
2021/03/25 03:55:19;;;;;;;5.43;2.33;;;8.00;63.50;;;;;;5076161;28;20051;-82
2021/03/25 03:58:20;;;;;;;3.58;2.72;;;8.00;63.50;;;;;;5109205;28;20059;-82
2021/03/25 04:00:55;;;;;;;3.30;2.17;;;8.00;63.50;;;;;;5091064;28;20040;-82
2021/03/25 04:03:36;;;;;;;2.92;2.20;;;8.00;63.40;;;;;;5091494;28;20028;-82
2021/03/25 04:06:20;;;;;;;4.63;2.60;;;8.00;63.40;;;;;;5108768;28;20051;-82
2021/03/25 04:09:11;;;;;;;3.53;2.33;;;8.10;63.60;;;;;;5075987;28;20047;-83
2021/03/25 04:11:54;;;;;;;2.13;1.92;;;8.10;63.60;;;;;;5078581;28;20031;-88
2021/03/25 04:14:33;;;;;;;4.47;2.13;;;8.00;63.50;;;;;;5097309;28;20047;-84
2021/03/25 04:17:16;;;;;;;3.63;2.03;;;8.10;63.70;;;;;;5098807;28;20069;-86
2021/03/25 04:19:48;;;;;;;4.00;2.33;;;8.10;63.70;;;;;;5099151;28;20012;-85
2021/03/25 04:22:48;;;;;;;2.65;2.10;;;8.00;63.50;;;;;;5084874;28;20046;-86
2021/03/25 04:25:20;;;;;;;3.07;1.93;;;8.00;63.50;;;;;;5082767;28;20051;-86
2021/03/25 04:27:57;;;;;;;3.88;2.30;;;8.00;63.50;;;;;;5081498;28;20284;-90
2021/03/25 04:30:33;;;;;;;4.05;2.65;;;8.10;63.70;;;;;;5096204;28;20032;-85
2021/03/25 04:32:59;;;;;;;3.35;2.25;;;8.10;63.70;;;;;;5095839;28;20123;-88
2021/03/25 04:35:25;;;;;;;7.00;2.40;;;8.10;63.70;;;;;;5060265;28;20470;-87
2021/03/25 04:37:54;;;;;;;3.33;2.08;;;8.10;63.70;;;;;;5077125;28;20479;-88
2021/03/25 04:40:30;;;;;;;5.00;2.42;;;8.10;63.70;;;;;;5077510;28;20020;-87
2021/03/25 04:42:57;;;;;;;4.35;2.30;;;8.10;63.70;;;;;;5077207;28;20032;-90
2021/03/25 04:45:41;;;;;;;2.65;2.13;;;8.20;63.80;;;;;;5076697;28;20452;-84
2021/03/25 04:48:15;;;;;;;3.78;2.42;;;8.20;63.90;;;;;;5094764;28;20039;-87
2021/03/25 04:50:59;;;;;;;7.95;2.90;;;8.20;63.80;;;;;;5043229;28;20040;-85
2021/03/25 04:53:34;;;;;;;3.42;2.45;;;8.20;63.80;;;;;;5094297;28;20391;-86
2021/03/25 04:56:02;;;;;;;3.95;2.40;;;8.20;63.70;;;;;;5076379;28;20028;-85
2021/03/25 04:58:35;;;;;;;3.88;2.08;;;8.30;63.90;;;;;;5076337;28;20483;-87
2021/03/25 05:01:07;;;;;;;6.05;2.28;;;8.30;63.90;;;;;;5093828;28;20501;-82
2021/03/25 05:03:34;;;;;;;4.78;2.17;;;8.30;63.80;;;;;;5059122;28;20059;-86
2021/03/25 05:06:00;;;;;;;3.65;2.30;;;8.20;63.60;;;;;;5076472;28;20032;-85
2021/03/25 05:08:30;;;;;;;3.95;2.67;;;8.30;63.80;;;;;;5095188;28;20036;-90
2021/03/25 05:11:10;;;;;;;3.22;1.92;;;8.30;63.80;;;;;;5078839;28;20047;-82
2021/03/25 05:13:42;;;;;;;4.22;2.33;;;8.30;63.80;;;;;;5076422;28;20039;-89
2021/03/25 05:16:33;;;;;;;4.85;1.85;;;8.30;63.80;;;;;;5059665;28;20495;-82
2021/03/25 05:19:15;;;;;;;4.65;2.55;;;8.30;63.80;;;;;;5076219;28;20038;-87
2021/03/25 05:22:03;;;;;;;4.20;1.90;;;8.30;63.80;;;;;;5076088;28;20040;-84
2021/03/25 05:24:43;;;;;;;5.65;2.15;;;8.30;63.70;;;;;;5075758;28;20027;-84
2021/03/25 05:27:13;;;;;;;3.65;1.92;;;8.30;63.70;;;;;;5075834;28;20032;-85
2021/03/25 05:29:42;;;;;;;7.13;2.15;;;8.30;63.70;;;;;;5075360;28;20119;-83
2021/03/25 05:32:11;;;;;;;5.60;2.08;;;8.30;63.70;;;;;;5076001;28;20024;-85
2021/03/25 05:34:39;;;;;;;5.63;2.10;;;8.40;63.90;;;;;;5058732;28;20032;-84
2021/03/25 05:37:07;;;;;;;6.40;2.05;;;8.40;63.90;;;;;;5093765;28;20081;-84
2021/03/25 05:39:34;;;;;;;3.47;2.00;;;8.40;63.90;;;;;;5057877;28;20032;-83
2021/03/25 05:42:22;;;;;;;4.97;2.17;;;8.40;63.90;;;;;;5058831;28;20073;-83
2021/03/25 05:45:03;;;;;;;4.80;2.42;;;8.40;63.90;;;;;;5074979;28;20036;-83
2021/03/25 05:47:57;;;;;;;4.72;2.30;;;8.40;63.80;;;;;;5069972;28;20387;-88
2021/03/25 05:50:44;;;;;;;5.72;2.20;;;8.50;63.90;;;;;;5057683;28;20029;-87
2021/03/25 05:53:22;;;;;;;3.47;2.10;;;8.50;63.90;;;;;;5072402;28;20029;-89
2021/03/25 05:56:09;;;;;;;3.60;2.03;;;8.50;63.90;;;;;;5038312;28;20397;-85
2021/03/25 05:59:28;;;;;;;2.47;1.92;;;8.50;63.90;;;;;;5064311;28;20043;-90
2021/03/25 06:02:00;;;;;;;7.57;2.03;;;8.50;63.80;;;;;;5025942;28;20056;-89
2021/03/25 06:04:32;;;;;;;4.95;2.47;;;8.50;63.70;;;;;;5071635;28;20055;-90
2021/03/25 06:07:16;;;;;;;4.18;2.10;;;8.50;63.80;;;;;;5035723;28;20028;-89
2021/03/25 06:09:49;;;;;;;;;;;8.50;63.70;;;;;;5053535;28;20495;-89
2021/03/25 06:12:29;;;;;;;3.45;1.95;;;8.50;63.70;;;;;;5051672;28;20351;-92
2021/03/25 06:15:33;;;;;;;5.45;2.45;;;8.50;63.60;;;;;;5070575;28;20040;-90
2021/03/25 06:18:11;;;;;;;3.83;2.08;;;8.60;63.70;;;;;;5057254;28;20093;-87
2021/03/25 06:20:48;;;;;;;5.72;2.30;;;8.50;63.50;;;;;;5090474;28;20044;-86
2021/03/25 06:23:50;;;;;;;3.28;2.42;;;8.60;63.70;;;;;;5059208;28;20062;-84
2021/03/25 06:26:57;;;;;;;7.82;2.20;;;8.60;63.70;;;;;;5071318;28;20205;-83
2021/03/25 06:29:28;;;;;;;3.53;2.03;;;8.60;63.70;;;;;;4966158;28;20578;-86
2021/03/25 06:32:01;;;;;;;7.00;1.70;;;8.60;63.70;;;;;;4938926;28;20498;-87
2021/03/25 06:34:41;;;;;;;4.72;2.67;;;8.60;63.70;;;;;;5026296;28;20134;-85
2021/03/25 06:37:27;;;;;;;5.75;2.28;;;8.60;63.60;;;;;;5058670;28;20028;-89
2021/03/25 06:39:58;;;;;;;5.38;2.30;;;8.70;63.80;;;;;;5057092;28;20028;-86
2021/03/25 06:42:43;;;;;;;3.00;1.52;;;8.70;63.70;;;;;;5084648;28;20383;-86
2021/03/25 06:45:28;;;;;;;5.57;2.50;;;8.70;63.80;;;;;;5052501;28;20032;-90
2021/03/25 06:48:01;;;;;;;2.63;1.80;;;8.80;63.90;;;;;;5069402;28;20075;-86
2021/03/25 06:50:33;;;;;;;5.70;2.42;;;8.80;63.80;;;;;;5033131;28;20036;-83
2021/03/25 06:53:22;;;;;;;7.72;2.88;;;8.80;63.90;;;;;;5059225;28;20036;-87
2021/03/25 06:55:59;;;;;;;4.53;2.40;;;8.90;64.50;;;;;;5071314;28;20059;-85
2021/03/25 06:58:34;;;;;;;7.78;3.60;;;8.90;64.80;;;;;;5054592;28;20036;-86
2021/03/25 07:01:05;;;;;;;4.50;2.53;;;9.00;65.10;;;;;;5071258;28;20024;-86
2021/03/25 07:03:35;;;;;;;6.13;2.75;;;9.10;65.30;;;;;;5075332;28;20041;-87
2021/03/25 07:06:02;;;;;;;5.13;2.20;;;9.20;65.50;;;;;;5036528;28;20494;-86
2021/03/25 07:08:31;;;;;;;6.40;2.67;;;9.20;65.50;;;;;;5039293;28;20043;-85
2021/03/25 07:11:05;;;;;;;4.10;2.13;;;9.30;65.60;;;;;;5054022;28;20029;-87
2021/03/25 07:13:35;;;;;;;3.72;2.47;;;9.30;65.60;;;;;;5075561;28;20093;-91
2021/03/25 07:16:02;;;;;;;5.80;2.45;;;9.40;65.70;;;;;;5065074;28;20467;-84
2021/03/25 07:18:38;;;;;;;5.57;2.08;;;9.40;65.70;;;;;;5054254;28;20032;-85
2021/03/25 07:21:27;;;;;;;6.22;2.25;;;9.50;65.90;;;;;;5085217;28;20393;-85
2021/03/25 07:23:55;;;;;;;4.60;2.15;;;9.60;66.00;;;;;;5086288;28;20040;-86
2021/03/25 07:26:30;;;;;;;5.25;2.28;;;9.60;65.80;;;;;;5056296;28;20526;-90
2021/03/25 07:29:10;;;;;;;4.93;2.42;;;9.70;66.00;;;;;;5088823;28;20040;-85
2021/03/25 07:31:41;;;;;;;4.95;2.00;;;9.70;66.00;;;;;;5070593;28;20039;-87
2021/03/25 07:34:08;;;;;;;7.15;2.15;;;9.70;65.90;;;;;;5070412;28;20024;-86
2021/03/25 07:36:47;;;;;;;6.78;2.42;;;9.70;65.90;;;;;;5069866;28;20127;-86
2021/03/25 07:39:13;;;;;;;5.53;2.28;;;9.80;66.00;;;;;;5071198;28;20028;-89
2021/03/25 07:41:45;;;;;;;2.90;2.17;;;9.80;65.90;;;;;;5054853;28;20090;-92
2021/03/25 07:44:32;;;;;;;3.75;2.08;;;9.80;66.00;;;;;;5071246;28;20075;-91
2021/03/25 07:47:03;;;;;;;6.85;2.70;;;9.90;66.20;;;;;;5055883;28;20057;-86
2021/03/25 07:49:37;;;;;;;5.43;2.25;;;9.90;66.00;;;;;;5068796;28;20455;-92
2021/03/25 07:52:06;;;;;;;;;;;10.00;66.20;;;;;;5090632;28;20032;-92
2021/03/25 07:54:37;;;;;;;5.60;3.10;;;10.10;66.20;;;;;;5055517;28;19947;-93
2021/03/25 07:57:12;;;;;;;6.25;2.55;;;10.20;66.20;;;;;;5072113;28;20035;-89
2021/03/25 07:59:42;;;;;;;7.10;2.10;;;10.20;66.10;;;;;;5054499;28;20086;-87
2021/03/25 08:02:27;;;;;;;5.00;2.08;;;10.30;66.30;;;;;;5052163;28;20028;-91
2021/03/25 08:04:55;;;;;;;5.45;2.60;;;10.40;66.50;;;;;;5072891;28;20036;-89
2021/03/25 08:07:22;;;;;;;7.90;2.13;;;10.50;66.50;;;;;;5055657;28;20032;-91
2021/03/25 08:09:53;;;;;;;2.28;2.05;;;10.60;66.70;;;;;;5092082;28;20043;-94
2021/03/25 08:12:24;;;;;;;3.97;2.25;;;10.60;66.60;;;;;;5070927;28;20016;-88
2021/03/25 08:15:02;;;;;;;3.47;2.45;;;10.70;66.70;;;;;;5052952;28;20032;-86
2021/03/25 08:17:53;;;;;;;6.18;2.58;;;10.80;66.70;;;;;;5052596;28;20166;-85
2021/03/25 08:20:31;;;;;;;3.58;1.90;;;11.00;66.90;;;;;;4995897;28;20040;-85
2021/03/25 08:23:16;;;;;;;6.82;2.10;;;11.10;67.40;;;;;;5044395;28;20028;-87
2021/03/25 08:25:45;;;;;;;7.78;2.40;;;11.20;66.90;;;;;;5056364;28;20551;-84
2021/03/25 08:28:17;;;;;;;5.32;2.30;;;11.30;66.80;;;;;;5056955;28;20033;-89
2021/03/25 08:31:04;;;;;;;5.18;2.05;;;11.40;66.90;;;;;;5057906;28;20085;-88
2021/03/25 08:34:00;;;;;;;3.83;2.53;;;11.50;67.00;;;;;;5047781;28;20040;-89
2021/03/25 08:36:29;;;;;;;;;;;11.70;67.20;;;;;;5053804;28;20039;-87
2021/03/25 08:39:20;;;;;;;3.63;1.98;;;11.80;67.10;;;;;;5048397;28;19908;-89
2021/03/25 08:42:26;;;;;;;2.70;1.80;;;11.90;67.00;;;;;;5056734;28;20177;-88
2021/03/25 08:44:58;;;;;;;5.20;2.67;;;12.00;67.00;;;;;;5031224;28;20031;-89
2021/03/25 08:47:59;;;;;;;7.57;2.10;;;12.10;67.00;;;;;;5054291;28;20102;-89
2021/03/25 09:00:29;;;;;;;4.55;2.10;;;12.20;66.80;;;;;;5019380;28;20040;-90
2021/03/25 09:08:11;;;;;;;3.65;2.03;;;12.30;66.90;;;;;;5007614;28;20050;-89
2021/03/25 09:10:57;;;;;;;2.33;1.88;;;12.30;66.80;;;;;;5000140;28;20036;-89
2021/03/25 09:13:33;;;;;;;8.93;2.30;;;12.30;66.90;;;;;;5078323;28;20033;-92
2021/03/25 09:16:32;;;;;;;4.82;1.90;;;12.30;67.00;;;;;;5053262;28;20093;-87
2021/03/25 09:19:01;;;;;;;6.45;2.80;;;12.40;67.30;;;;;;5056089;28;20086;-86
2021/03/25 09:21:32;;;;;;;5.20;2.45;;;12.40;67.50;;;;;;5068301;28;20267;-86
2021/03/25 09:24:00;;;;;;;7.60;2.80;;;12.50;67.70;;;;;;5054731;28;20024;-87
2021/03/25 09:26:26;;;;;;;5.88;1.75;;;12.50;67.70;;;;;;5063014;28;20059;-86
2021/03/25 09:29:03;;;;;;;6.07;2.38;;;12.50;67.80;;;;;;5053360;28;20243;-87
2021/03/25 09:31:37;;;;;;;8.13;2.70;;;12.50;67.80;;;;;;5052359;28;20482;-86
2021/03/25 09:34:09;;;;;;;6.00;2.70;;;12.60;68.00;;;;;;5052871;28;20044;-88
2021/03/25 09:36:35;;;;;;;5.63;1.90;;;12.70;68.10;;;;;;5036029;28;20028;-87
2021/03/25 09:39:02;;;;;;;6.03;3.15;;;12.80;68.10;;;;;;5047605;28;20420;-87
2021/03/25 09:41:28;;;;;;;4.53;2.22;;;12.90;68.00;;;;;;5071963;28;20027;-86
2021/03/25 09:43:55;;;;;;;5.93;2.30;;;13.10;68.20;;;;;;5052895;28;20033;-90
2021/03/25 09:46:49;;;;;;;2.50;1.83;;;13.20;68.20;;;;;;5036874;28;20048;-90
2021/03/25 09:49:54;;;;;;;5.53;2.20;;;13.40;68.50;;;;;;5053015;28;20043;-87
2021/03/25 10:05:40;;;;;;;5.72;1.83;;;14.20;68.30;;;;;;5005405;28;20045;-85
2021/03/25 10:08:11;;;;;;;5.43;2.45;;;14.30;68.10;;;;;;5007083;28;20401;-89
2021/03/25 10:10:49;;;;;;;5.70;2.22;;;14.40;68.20;;;;;;5012534;28;20136;-85
2021/03/25 10:13:19;;;;;;;4.57;1.92;;;14.50;68.20;;;;;;5029645;28;20037;-85
2021/03/25 10:15:45;;;;;;;4.40;2.05;;;14.60;68.20;;;;;;5027380;28;20052;-87
2021/03/25 10:18:17;;;;;;;5.22;1.95;;;14.80;68.40;;;;;;5034551;28;20025;-86
2021/03/25 10:20:49;;;;;;;6.15;2.25;;;14.90;68.40;;;;;;5049820;28;20387;-86
2021/03/25 10:23:30;;;;;;;8.30;2.50;;;15.00;68.40;;;;;;5037922;28;20056;-87
2021/03/25 10:26:11;;;;;;;4.65;1.92;;;15.20;68.40;;;;;;5028217;28;20574;-87
2021/03/25 10:28:51;;;;;;;6.40;2.30;;;15.30;68.30;;;;;;5028656;28;20846;-86
2021/03/25 10:31:24;;;;;;;7.82;2.35;;;15.50;68.30;;;;;;5045473;28;20041;-88
2021/03/25 10:33:55;;;;;;;3.63;2.10;;;15.70;68.30;;;;;;5064730;28;20098;-86
2021/03/25 10:36:46;;;;;;;6.28;2.10;;;15.80;68.20;;;;;;5067410;28;20082;-85
2021/03/25 10:39:30;;;;;;;8.00;2.40;;;16.00;68.30;;;;;;5066733;28;20037;-84
2021/03/25 10:42:10;;;;;;;5.78;1.80;;;16.10;68.10;;;;;;5067380;28;20479;-84
2021/03/25 10:44:35;;;;;;;2.90;1.73;;;16.20;68.10;;;;;;5049412;28;20395;-84
2021/03/25 10:47:06;;;;;;;6.72;2.47;;;16.30;68.10;;;;;;5067277;28;20055;-84
2021/03/25 10:49:53;;;;;;;5.13;2.13;;;16.40;68.00;;;;;;5045171;28;20262;-84
2021/03/25 10:52:25;;;;;;;6.25;2.55;;;16.60;68.00;;;;;;5049483;28;20112;-84
2021/03/25 10:54:55;;;;;;;3.85;1.90;;;16.60;67.70;;;;;;5034013;28;20036;-85
2021/03/25 10:57:27;;;;;;;4.20;1.85;;;16.80;67.90;;;;;;5057245;28;20035;-84
2021/03/25 11:00:10;;;;;;;5.60;2.10;;;16.80;67.60;;;;;;5089079;28;20028;-88
2021/03/25 11:02:43;;;;;;;3.85;1.60;;;16.90;67.70;;;;;;5050836;28;20032;-89
2021/03/25 11:05:20;;;;;;;6.13;1.92;;;17.10;67.80;;;;;;5035316;28;20024;-88
2021/03/25 11:12:31;;;;;;;;;;;17.30;67.60;;;;;;5045896;28;20509;-87
2021/03/25 11:15:00;;;;;;;5.97;2.30;;;17.50;67.70;;;;;;5046730;28;19912;-87
2021/03/25 11:17:26;;;;;;;6.03;1.83;;;17.50;67.40;;;;;;5089223;28;20039;-87
2021/03/25 11:19:54;;;;;;;8.98;2.35;;;17.50;67.30;;;;;;5071013;28;20100;-88
2021/03/25 11:22:21;;;;;;;5.63;1.90;;;17.50;67.10;;;;;;5051414;28;20031;-85
2021/03/25 11:24:49;;;;;;;2.75;1.83;;;17.60;67.20;;;;;;5050876;28;20090;-87
2021/03/25 11:27:19;;;;;;;8.52;2.35;;;17.60;67.00;;;;;;5051030;28;20033;-86
2021/03/25 11:29:47;;;;;;;3.90;1.88;;;17.70;66.90;;;;;;5050746;28;20028;-88
2021/03/25 11:32:19;;;;;;;5.63;1.58;;;17.80;66.90;;;;;;5035027;28;20024;-87
2021/03/25 11:34:47;;;;;;;4.65;1.75;;;17.80;66.60;;;;;;5069408;28;20029;-87
2021/03/25 11:37:29;;;;;;;3.40;1.95;;;17.80;66.50;;;;;;5070781;28;20020;-87
2021/03/25 11:39:58;;;;;;;5.18;1.83;;;17.80;66.20;;;;;;5072029;28;20036;-87
2021/03/25 11:42:26;;;;;;;6.10;2.13;;;17.90;66.30;;;;;;5071848;28;20032;-90
2021/03/25 11:44:52;;;;;;;6.40;2.45;;;17.90;66.10;;;;;;5071470;28;20471;-87
2021/03/25 11:47:19;;;;;;;3.97;1.70;;;18.00;66.10;;;;;;5071872;28;20044;-89
2021/03/25 11:49:46;;;;;;;3.88;2.30;;;18.00;65.90;;;;;;5051229;28;20028;-85
2021/03/25 11:52:13;;;;;;;4.15;1.92;;;18.00;65.90;;;;;;5071757;28;20074;-85
2021/03/25 11:54:44;;;;;;;6.90;2.20;;;18.10;66.00;;;;;;5053517;28;20056;-87
2021/03/25 11:57:34;;;;;;;4.38;2.22;;;18.10;65.80;;;;;;5071965;28;20028;-88
2021/03/25 12:00:19;;;;;;;5.18;1.60;;;18.20;65.70;;;;;;5053653;28;20452;-88
2021/03/25 12:02:46;;;;;;;4.35;1.70;;;18.30;65.60;;;;;;5060047;28;20032;-87
2021/03/25 12:05:28;;;;;;;3.97;1.92;;;18.40;65.70;;;;;;5074439;28;20046;-88
2021/03/25 12:08:06;;;;;;;4.90;2.25;;;18.40;65.30;;;;;;5057592;28;20043;-86
2021/03/25 12:10:33;;;;;;;2.72;1.58;;;18.40;65.20;;;;;;5074086;28;20044;-88
2021/03/25 12:12:59;;;;;;;5.00;1.65;;;18.40;65.30;;;;;;5056718;28;20035;-85
2021/03/25 12:15:25;;;;;;;5.28;2.22;;;18.50;65.30;;;;;;5073521;28;20483;-85
2021/03/25 12:18:01;;;;;;;2.63;2.10;;;18.50;65.20;;;;;;5074550;28;20175;-88
2021/03/25 12:20:34;;;;;;;2.90;1.67;;;18.70;65.20;;;;;;5056443;28;20031;-85
2021/03/25 12:23:34;;;;;;;3.53;1.85;;;18.70;65.10;;;;;;5056690;28;20024;-85
2021/03/25 12:26:03;;;;;;;5.80;2.03;;;18.80;65.10;;;;;;5058317;28;20132;-88
2021/03/25 12:28:30;;;;;;;6.43;1.63;;;18.90;65.20;;;;;;5062149;28;20194;-86
2021/03/25 12:30:56;;;;;;;4.88;1.70;;;18.90;65.10;;;;;;5075277;28;20612;-87
2021/03/25 12:33:37;;;;;;;4.40;2.10;;;19.00;65.20;;;;;;5058295;28;20101;-87
2021/03/25 12:36:42;;;;;;;3.47;1.60;;;19.00;64.90;;;;;;5097528;28;20035;-92
2021/03/25 12:39:08;;;;;;;4.40;1.95;;;19.00;64.80;;;;;;5055145;28;20028;-85
2021/03/25 12:41:41;;;;;;;4.13;1.77;;;19.00;64.80;;;;;;5074742;28;20032;-87
2021/03/25 12:44:09;;;;;;;4.53;1.98;;;19.00;64.70;;;;;;5056100;28;20498;-86
2021/03/25 12:46:35;;;;;;;3.08;1.60;;;19.00;64.60;;;;;;5063273;28;20040;-94
2021/03/25 12:49:02;;;;;;;3.83;1.70;;;19.00;64.50;;;;;;5085978;28;20040;-93
2021/03/25 12:51:28;;;;;;;4.13;1.50;;;19.00;64.50;;;;;;5064032;28;20028;-91
2021/03/25 12:53:54;;;;;;;5.78;1.90;;;18.90;64.40;;;;;;5096426;28;20146;-88
2021/03/25 12:56:26;;;;;;;2.65;1.70;;;19.00;64.60;;;;;;5095714;28;20122;-86
2021/03/25 12:58:52;;;;;;;4.75;1.52;;;19.00;64.40;;;;;;5066681;28;20200;-85
2021/03/25 13:01:21;;;;;;;2.70;1.58;;;19.10;64.50;;;;;;5075041;28;20044;-94
2021/03/25 13:04:03;;;;;;;7.53;2.35;;;19.10;64.30;;;;;;5046037;28;20387;-69
2021/03/25 13:06:29;;;;;;;5.55;1.77;;;19.20;64.40;;;;;;5039300;28;20096;-69
2021/03/25 13:08:55;;;;;;;4.70;1.77;;;19.20;64.20;;;;;;5041396;28;20037;-67
2021/03/25 13:11:25;;;;;;;6.80;2.08;;;19.20;64.00;;;;;;5039606;28;20124;-69
2021/03/25 13:13:52;;;;;;;3.92;1.67;;;19.20;63.90;;;;;;5040171;28;20037;-66
2021/03/25 13:16:19;;;;;;;8.35;2.95;;;19.20;63.90;;;;;;5041312;28;20036;-70
2021/03/25 13:18:46;;;;;;;8.60;2.83;;;19.10;63.00;;;;;;5040849;28;20487;-69
2021/03/25 13:21:12;;;;;;;9.13;2.65;;;18.90;61.90;;;;;;5023071;28;20148;-69
2021/03/25 13:23:38;;;;;;;8.88;2.80;;;18.70;61.10;;;;;;5034246;28;20560;-69
2021/03/25 13:26:08;;;;;;;6.93;2.50;;;18.50;60.70;;;;;;5036301;28;20049;-69
2021/03/25 13:28:36;;;;;;;9.68;2.50;;;18.40;60.50;;;;;;5027785;28;20363;-68
2021/03/25 13:31:03;;;;;;;12.07;3.17;;;18.10;60.10;;;;;;5041751;28;20480;-70
2021/03/25 13:33:30;;;;;;;10.60;3.20;;;18.00;60.00;;;;;;5041414;28;20641;-71
2021/03/25 13:35:56;;;;;;;12.38;3.03;;;17.90;60.10;;;;;;5041251;28;20282;-71
2021/03/25 13:38:23;;;;;;;12.75;3.22;;;17.90;60.30;;;;;;5039634;28;20064;-70
2021/03/25 13:40:49;;;;;;;7.88;2.78;;;17.90;60.60;;;;;;5040885;28;20179;-71
2021/03/25 13:43:23;;;;;;;7.70;2.65;;;17.90;60.30;;;;;;5041162;28;20041;-70
2021/03/25 13:45:49;;;;;;;12.98;3.80;;;18.00;60.50;;;;;;5040379;28;20029;-71
2021/03/25 13:48:16;;;;;;;7.45;2.40;;;18.00;60.50;;;;;;5039877;28;20528;-70
2021/03/25 13:50:43;;;;;;;8.48;2.40;;;18.10;60.70;;;;;;5039915;28;20029;-69
2021/03/25 13:53:11;;;;;;;5.82;2.58;;;18.10;60.60;;;;;;5039476;28;20037;-70
2021/03/25 13:55:39;;;;;;;6.60;2.63;;;18.10;60.60;;;;;;5040701;28;20033;-71
2021/03/25 13:58:07;;;;;;;6.40;2.38;;;18.20;60.80;;;;;;5040527;28;20037;-71
2021/03/25 14:00:34;;;;;;;7.20;2.50;;;18.20;60.80;;;;;;5039634;28;20582;-70
2021/03/25 14:03:01;;;;;;;7.55;2.55;;;18.30;60.90;;;;;;5015948;28;20132;-70
2021/03/25 14:05:29;;;;;;;5.35;2.83;;;18.30;60.90;;;;;;5019474;28;20478;-69